createdAt,value
2023-05-02T00:02:03.828Z,84.40
2023-05-02T00:04:34.882Z,84.60
2023-05-02T00:07:02.395Z,84.30
2023-05-02T00:09:30.572Z,84.80
2023-05-02T00:11:57.902Z,84.80
2023-05-02T00:14:25.351Z,84.80
2023-05-02T00:16:52.904Z,84.70
2023-05-02T00:19:20.294Z,85.10
2023-05-02T00:21:49.153Z,84.70
2023-05-02T00:24:18.012Z,85.40
2023-05-02T00:26:46.387Z,85.50
2023-05-02T00:29:13.793Z,84.70
2023-05-02T00:31:41.678Z,85.10
2023-05-02T00:34:09.129Z,85.30
2023-05-02T00:36:36.528Z,85.90
2023-05-02T00:39:04.794Z,85.10
2023-05-02T00:41:32.147Z,84.90
2023-05-02T00:43:59.520Z,84.80
2023-05-02T00:46:27.335Z,85.00
2023-05-02T00:48:54.850Z,85.30
2023-05-02T00:51:22.288Z,85.60
2023-05-02T00:53:50.490Z,85.30
2023-05-02T00:56:17.863Z,85.10
2023-05-02T00:58:47.104Z,85.30
2023-05-02T01:01:44.052Z,85.50
2023-05-02T01:04:22.218Z,85.90
2023-05-02T01:07:23.660Z,86.80
2023-05-02T01:10:17.427Z,86.00
2023-05-02T01:12:54.935Z,86.10
2023-05-02T01:15:23.441Z,87.10
2023-05-02T01:17:53.624Z,85.80
2023-05-02T01:20:23.874Z,86.20
2023-05-02T01:22:52.395Z,86.10
2023-05-02T01:25:43.662Z,85.80
2023-05-02T01:28:29.133Z,87.20
2023-05-02T01:30:57.305Z,86.50
2023-05-02T01:33:28.385Z,86.90
2023-05-02T01:35:57.621Z,86.10
2023-05-02T01:38:26.653Z,86.00
2023-05-02T01:40:55.487Z,86.20
2023-05-02T01:43:24.561Z,86.00
2023-05-02T01:45:55.459Z,85.80
2023-05-02T01:48:25.227Z,86.10
2023-05-02T01:50:52.954Z,87.10
2023-05-02T01:53:22.502Z,85.60
2023-05-02T01:55:50.896Z,86.00
2023-05-02T01:58:19.780Z,86.40
2023-05-02T02:00:47.920Z,86.70
2023-05-02T02:03:17.897Z,86.10
2023-05-02T02:05:48.476Z,86.00
2023-05-02T02:08:15.796Z,86.20
2023-05-02T02:10:46.469Z,85.80
2023-05-02T02:13:19.691Z,87.00
2023-05-02T02:15:50.703Z,86.50
2023-05-02T02:18:25.451Z,86.10
2023-05-02T02:20:53.942Z,86.60
2023-05-02T02:23:25.754Z,85.60
2023-05-02T02:25:55.354Z,86.90
2023-05-02T02:28:23.067Z,85.40
2023-05-02T02:30:50.842Z,85.10
2023-05-02T02:33:19.655Z,85.30
2023-05-02T02:36:23.101Z,85.30
2023-05-02T02:39:17.477Z,85.60
2023-05-02T02:41:59.656Z,85.40
2023-05-02T02:45:06.595Z,86.20
2023-05-02T02:47:51.085Z,85.30
2023-05-02T02:50:38.318Z,85.10
2023-05-02T02:53:09.806Z,85.30
2023-05-02T02:55:48.464Z,84.60
2023-05-02T02:58:17.422Z,83.50
2023-05-02T03:00:47.415Z,84.70
2023-05-02T03:03:16.521Z,84.90
2023-05-02T03:05:44.868Z,84.20
2023-05-02T03:08:13.725Z,84.60
2023-05-02T03:10:41.251Z,84.10
2023-05-02T03:13:08.978Z,83.50
2023-05-02T03:15:51.392Z,83.50
2023-05-02T03:18:22.640Z,84.40
2023-05-02T03:20:50.021Z,83.30
2023-05-02T03:23:17.554Z,83.30
2023-05-02T03:25:45.320Z,83.40
2023-05-02T03:28:18.977Z,83.40
2023-05-02T03:30:48.928Z,83.60
2023-05-02T03:33:17.306Z,82.80
2023-05-02T03:35:46.408Z,83.40
2023-05-02T03:38:14.065Z,82.90
2023-05-02T03:40:42.312Z,83.00
2023-05-02T03:43:11.841Z,82.70
2023-05-02T03:45:39.756Z,83.20
2023-05-02T03:48:07.278Z,83.70
2023-05-02T03:50:35.309Z,82.60
2023-05-02T03:53:02.947Z,82.50
2023-05-02T03:55:41.158Z,82.20
2023-05-02T03:58:12.300Z,82.10
2023-05-02T04:00:39.865Z,82.20
2023-05-02T04:03:09.071Z,82.20
2023-05-02T04:05:40.777Z,82.90
2023-05-02T04:08:09.971Z,81.70
2023-05-02T04:10:37.635Z,81.70
2023-05-02T04:13:07.960Z,81.70
2023-05-02T04:15:37.981Z,81.70
2023-05-02T04:18:06.141Z,81.80
2023-05-02T04:20:36.922Z,81.50
2023-05-02T04:23:04.883Z,82.10
2023-05-02T04:25:32.911Z,81.20
2023-05-02T04:28:03.675Z,81.90
2023-05-02T04:30:31.576Z,81.50
2023-05-02T04:33:04.973Z,82.10
2023-05-02T04:35:35.974Z,81.70
2023-05-02T04:38:05.028Z,81.60
2023-05-02T04:40:33.525Z,81.90
2023-05-02T04:43:05.122Z,82.60
2023-05-02T04:45:48.127Z,82.50
2023-05-02T04:48:23.079Z,81.90
2023-05-02T04:50:50.582Z,82.00
2023-05-02T04:53:17.950Z,82.50
2023-05-02T04:55:45.454Z,82.30
2023-05-02T04:58:12.914Z,82.40
2023-05-02T05:00:41.725Z,82.40
2023-05-02T05:03:09.394Z,82.00
2023-05-02T05:05:37.155Z,82.20
2023-05-02T05:08:07.693Z,82.50
2023-05-02T05:10:37.547Z,82.20
2023-05-02T05:13:04.906Z,82.10
2023-05-02T05:15:33.100Z,82.80
2023-05-02T05:18:02.308Z,83.60
2023-05-02T05:20:29.851Z,82.90
2023-05-02T05:23:00.167Z,82.40
2023-05-02T05:25:28.751Z,82.70
2023-05-02T05:27:57.307Z,84.10
2023-05-02T05:30:27.229Z,83.40
2023-05-02T05:32:54.751Z,84.10
2023-05-02T05:35:22.298Z,83.00
2023-05-02T05:37:49.612Z,82.30
2023-05-02T05:40:18.496Z,82.80
2023-05-02T05:42:50.944Z,82.50
2023-05-02T05:45:24.196Z,82.40
2023-05-02T05:47:54.185Z,81.90
2023-05-02T05:50:21.921Z,82.20
2023-05-02T05:52:50.019Z,82.30
2023-05-02T05:55:17.495Z,82.10
2023-05-02T05:57:45.314Z,81.70
2023-05-02T06:00:13.331Z,82.00
2023-05-02T06:02:45.401Z,81.00
2023-05-02T06:05:20.153Z,81.50
2023-05-02T06:07:47.491Z,81.60
2023-05-02T06:10:14.992Z,82.30
2023-05-02T06:12:43.828Z,81.10
2023-05-02T06:15:13.256Z,81.10
2023-05-02T06:17:41.561Z,81.70
2023-05-02T06:20:09.557Z,81.60
2023-05-02T06:22:37.229Z,81.20
2023-05-02T06:25:05.339Z,81.40
2023-05-02T06:27:33.789Z,80.60
2023-05-02T06:30:01.627Z,81.00
2023-05-02T06:32:33.378Z,80.60
2023-05-02T06:35:01.185Z,81.50
2023-05-02T06:37:32.654Z,79.30
2023-05-02T06:40:00.129Z,78.60
2023-05-02T06:42:28.045Z,78.90
2023-05-02T06:44:56.315Z,79.30
2023-05-02T06:47:24.454Z,78.80
2023-05-02T06:49:53.029Z,78.80
2023-05-02T06:52:20.460Z,77.80
2023-05-02T06:54:47.820Z,77.50
2023-05-02T06:57:15.856Z,76.60
2023-05-02T06:59:43.290Z,76.60
2023-05-02T07:02:11.291Z,76.10
2023-05-02T07:04:38.852Z,76.50
2023-05-02T07:07:07.660Z,75.90
2023-05-02T07:09:35.123Z,77.00
2023-05-02T07:12:04.605Z,76.40
2023-05-02T07:14:33.501Z,75.90
2023-05-02T07:17:00.951Z,75.80
2023-05-02T07:19:31.461Z,76.60
2023-05-02T07:21:58.789Z,77.20
2023-05-02T07:24:26.394Z,76.50
2023-05-02T07:26:53.807Z,76.30
2023-05-02T07:29:21.168Z,75.80
2023-05-02T07:31:48.585Z,75.50
2023-05-02T07:34:16.117Z,75.50
2023-05-02T07:36:43.473Z,75.10
2023-05-02T07:39:11.027Z,76.50
2023-05-02T07:41:38.479Z,75.60
2023-05-02T07:44:05.804Z,75.70
2023-05-02T07:46:33.245Z,76.30
2023-05-02T07:49:00.645Z,76.70
2023-05-02T07:51:28.126Z,76.40
2023-05-02T07:53:58.407Z,76.10
2023-05-02T07:56:25.870Z,75.20
2023-05-02T07:58:53.276Z,74.50
2023-05-02T08:01:20.819Z,75.10
2023-05-02T08:03:49.925Z,75.00
2023-05-02T08:06:17.779Z,75.20
2023-05-02T08:08:45.233Z,75.20
2023-05-02T08:11:12.631Z,75.20
2023-05-02T08:13:39.977Z,74.70
2023-05-02T08:16:08.761Z,74.70
2023-05-02T08:18:36.736Z,74.10
2023-05-02T08:21:04.293Z,74.60
2023-05-02T08:23:31.649Z,74.70
2023-05-02T08:25:59.007Z,74.20
2023-05-02T08:28:26.750Z,74.30
2023-05-02T08:30:54.198Z,74.50
2023-05-02T08:33:21.736Z,74.40
2023-05-02T08:35:49.606Z,74.70
2023-05-02T08:38:17.516Z,74.20
2023-05-02T08:40:45.275Z,73.30
2023-05-02T08:43:13.305Z,72.90
2023-05-02T08:45:45.001Z,74.10
2023-05-02T08:48:13.823Z,73.30
2023-05-02T08:50:45.191Z,72.50
2023-05-02T08:53:16.194Z,72.60
2023-05-02T08:55:44.015Z,72.50
2023-05-02T08:58:13.281Z,72.80
2023-05-02T09:00:43.267Z,71.90
2023-05-02T09:03:36.202Z,72.80
2023-05-02T09:06:15.111Z,72.40
2023-05-02T09:08:44.639Z,71.20
2023-05-02T09:11:12.972Z,71.20
2023-05-02T09:13:45.213Z,70.90
2023-05-02T09:16:22.887Z,69.60
2023-05-02T09:19:01.153Z,69.40
2023-05-02T09:21:40.012Z,69.70
2023-05-02T09:24:18.908Z,69.30
2023-05-02T09:27:04.997Z,69.30
2023-05-02T09:29:37.873Z,69.80
2023-05-02T09:32:06.622Z,69.20
2023-05-02T09:34:34.452Z,68.30
2023-05-02T09:37:04.114Z,67.80
2023-05-02T09:39:31.608Z,67.50
2023-05-02T09:41:59.943Z,67.90
2023-05-02T09:44:36.774Z,67.70
2023-05-02T09:47:04.214Z,66.50
2023-05-02T09:49:45.907Z,65.70
2023-05-02T09:52:18.808Z,66.50
2023-05-02T09:54:56.535Z,65.60
2023-05-02T09:57:40.204Z,65.20
2023-05-02T10:00:09.056Z,65.50
2023-05-02T10:02:42.365Z,64.30
2023-05-02T10:05:11.766Z,64.20
2023-05-02T10:07:39.613Z,63.40
2023-05-02T10:10:08.559Z,63.00
2023-05-02T10:12:38.720Z,61.80
2023-05-02T10:15:11.972Z,62.10
2023-05-02T10:17:42.849Z,61.60
2023-05-02T10:20:14.245Z,61.10
2023-05-02T10:22:42.364Z,61.40
2023-05-02T10:25:10.190Z,61.60
2023-05-02T10:27:37.999Z,62.10
2023-05-02T10:30:06.788Z,62.00
2023-05-02T10:32:35.124Z,62.90
2023-05-02T10:35:07.090Z,61.60
2023-05-02T10:37:38.376Z,61.00
2023-05-02T10:40:09.882Z,60.00
2023-05-02T10:42:55.953Z,59.40
2023-05-02T10:45:34.365Z,60.80
2023-05-02T10:48:22.703Z,59.80
2023-05-02T10:50:52.996Z,59.40
2023-05-02T10:53:39.766Z,58.80
2023-05-02T10:56:34.459Z,59.60
2023-05-02T10:59:29.072Z,60.40
2023-05-02T11:01:57.763Z,59.60
2023-05-02T11:04:25.628Z,59.80
2023-05-02T11:06:59.305Z,59.40
2023-05-02T11:09:45.467Z,59.90
2023-05-02T11:13:11.429Z,60.00
2023-05-02T11:15:41.525Z,58.20
2023-05-02T11:18:13.563Z,58.60
2023-05-02T11:20:42.470Z,57.90
2023-05-02T11:23:25.944Z,58.30
2023-05-02T11:26:00.389Z,58.40
2023-05-02T11:28:37.124Z,58.20
2023-05-02T11:31:30.759Z,58.20
2023-05-02T11:33:59.591Z,57.80
2023-05-02T11:36:34.560Z,56.90
2023-05-02T11:39:05.782Z,57.80
2023-05-02T11:41:43.780Z,57.80
2023-05-02T11:44:11.240Z,57.70
2023-05-02T11:46:41.009Z,56.90
2023-05-02T11:49:09.632Z,56.10
2023-05-02T11:51:38.025Z,56.80
2023-05-02T11:54:07.947Z,56.50
2023-05-02T11:56:36.444Z,56.40
2023-05-02T11:59:04.925Z,56.90
2023-05-02T12:01:32.369Z,56.20
2023-05-02T12:04:04.242Z,57.30
2023-05-02T12:06:31.678Z,56.10
2023-05-02T12:09:10.635Z,55.90
2023-05-02T12:11:38.620Z,56.60
2023-05-02T12:14:09.365Z,56.20
2023-05-02T12:16:37.069Z,55.30
2023-05-02T12:19:04.838Z,55.40
2023-05-02T12:21:33.388Z,55.20
2023-05-02T12:24:02.338Z,55.20
2023-05-02T12:26:31.773Z,55.50
2023-05-02T12:28:59.485Z,55.30
2023-05-02T12:31:32.398Z,55.00
2023-05-02T12:34:01.529Z,54.70
2023-05-02T12:36:29.535Z,54.90
2023-05-02T12:38:59.700Z,55.00
2023-05-02T12:41:35.830Z,54.30
2023-05-02T12:44:04.362Z,54.00
2023-05-02T12:46:33.238Z,54.00
2023-05-02T12:49:05.432Z,53.60
2023-05-02T12:51:34.634Z,53.70
2023-05-02T12:54:02.622Z,53.80
2023-05-02T12:56:32.824Z,54.00
2023-05-02T12:59:01.422Z,54.30
2023-05-02T13:01:29.087Z,54.30
2023-05-02T13:03:58.265Z,54.10
2023-05-02T13:06:26.292Z,54.80
2023-05-02T13:08:53.916Z,53.30
2023-05-02T13:11:21.572Z,53.80
2023-05-02T13:13:48.887Z,53.10
2023-05-02T13:16:16.707Z,53.30
2023-05-02T13:18:45.599Z,53.30
2023-05-02T13:21:16.139Z,53.70
2023-05-02T13:23:44.264Z,53.70
2023-05-02T13:26:12.203Z,53.10
2023-05-02T13:28:39.935Z,53.30
2023-05-02T13:31:07.917Z,53.20
2023-05-02T13:33:35.514Z,53.20
2023-05-02T13:36:03.043Z,53.50
2023-05-02T13:38:30.751Z,53.20
2023-05-02T13:40:58.176Z,53.30
2023-05-02T13:43:26.748Z,53.60
2023-05-02T13:45:54.126Z,53.20
2023-05-02T13:48:21.710Z,52.60
2023-05-02T13:50:49.074Z,54.00
2023-05-02T13:53:19.195Z,53.40
2023-05-02T13:55:46.624Z,53.20
2023-05-02T13:58:13.943Z,53.00
2023-05-02T14:00:41.329Z,53.10
2023-05-02T14:03:11.170Z,53.40
2023-05-02T14:05:43.477Z,53.40
2023-05-02T14:08:11.994Z,53.30
2023-05-02T14:10:39.536Z,53.10
2023-05-02T14:13:06.853Z,53.30
2023-05-02T14:15:37.506Z,53.10
2023-05-02T14:18:04.878Z,53.00
2023-05-02T14:20:32.219Z,53.20
2023-05-02T14:22:59.573Z,53.30
2023-05-02T14:25:26.944Z,52.90
2023-05-02T14:27:54.348Z,52.80
2023-05-02T14:30:21.764Z,53.00
2023-05-02T14:32:49.188Z,54.00
2023-05-02T14:35:17.272Z,53.30
2023-05-02T14:37:45.586Z,52.50
2023-05-02T14:40:14.053Z,53.20
2023-05-02T14:42:41.807Z,53.00
2023-05-02T14:45:10.388Z,53.20
2023-05-02T14:47:37.953Z,53.00
2023-05-02T14:50:06.349Z,53.40
2023-05-02T14:52:33.864Z,53.00
2023-05-02T14:55:02.655Z,53.50
2023-05-02T14:57:30.439Z,53.20
2023-05-02T14:59:57.806Z,53.20
2023-05-02T15:02:25.363Z,53.50
2023-05-02T15:04:52.876Z,53.10
2023-05-02T15:07:20.681Z,53.40
2023-05-02T15:09:48.150Z,53.10
2023-05-02T15:12:15.604Z,54.30
2023-05-02T15:14:43.145Z,53.90
2023-05-02T15:17:11.813Z,53.30
2023-05-02T15:19:39.168Z,52.70
2023-05-02T15:22:06.618Z,53.40
2023-05-02T15:24:33.941Z,53.60
2023-05-02T15:27:01.777Z,53.40
2023-05-02T15:29:29.240Z,53.30
2023-05-02T15:31:56.821Z,53.00
2023-05-02T15:34:24.325Z,53.80
2023-05-02T15:36:52.834Z,54.00
2023-05-02T15:39:20.226Z,53.20
2023-05-02T15:41:47.928Z,54.50
2023-05-02T15:44:15.413Z,53.60
2023-05-02T15:46:46.803Z,53.40
2023-05-02T15:49:15.114Z,53.40
2023-05-02T15:51:42.689Z,53.70
2023-05-02T15:54:10.050Z,54.00
2023-05-02T15:56:37.869Z,53.70
2023-05-02T15:59:05.322Z,54.40
2023-05-02T16:01:32.684Z,54.00
2023-05-02T16:04:00.301Z,54.40
2023-05-02T16:06:27.798Z,53.80
2023-05-02T16:08:55.737Z,53.70
2023-05-02T16:11:23.173Z,54.00
2023-05-02T16:13:50.605Z,54.00
2023-05-02T16:16:18.014Z,55.20
2023-05-02T16:18:45.526Z,53.90
2023-05-02T16:21:12.875Z,54.20
2023-05-02T16:23:40.296Z,54.10
2023-05-02T16:26:07.702Z,54.10
2023-05-02T16:28:35.138Z,54.40
2023-05-02T16:31:07.651Z,53.90
2023-05-02T16:33:35.109Z,54.50
2023-05-02T16:36:03.487Z,53.70
2023-05-02T16:38:31.111Z,53.50
2023-05-02T16:40:58.781Z,53.90
2023-05-02T16:43:26.131Z,53.80
2023-05-02T16:46:04.406Z,54.00
2023-05-02T16:48:32.307Z,55.20
2023-05-02T16:51:01.716Z,54.30
2023-05-02T16:53:31.047Z,54.30
2023-05-02T16:55:59.997Z,54.20
2023-05-02T16:58:30.841Z,55.00
2023-05-02T17:01:00.340Z,55.10
2023-05-02T17:03:28.940Z,54.80
2023-05-02T17:06:01.229Z,54.30
2023-05-02T17:08:29.180Z,55.20
2023-05-02T17:10:56.864Z,54.60
2023-05-02T17:13:24.336Z,54.80
2023-05-02T17:15:52.872Z,54.70
2023-05-02T17:18:20.229Z,54.80
2023-05-02T17:20:47.917Z,54.90
2023-05-02T17:23:16.784Z,55.00
2023-05-02T17:25:44.220Z,55.60
2023-05-02T17:28:11.616Z,55.30
2023-05-02T17:30:39.045Z,55.40
2023-05-02T17:33:06.643Z,55.30
2023-05-02T17:35:34.194Z,55.50
2023-05-02T17:38:01.695Z,55.70
2023-05-02T17:40:29.823Z,55.60
2023-05-02T17:42:58.797Z,55.80
2023-05-02T17:45:28.977Z,55.90
2023-05-02T17:47:56.705Z,56.60
2023-05-02T17:50:24.224Z,56.30
2023-05-02T17:52:51.678Z,57.00
2023-05-02T17:55:19.438Z,56.70
2023-05-02T17:57:46.883Z,56.80
2023-05-02T18:00:14.908Z,57.00
2023-05-02T18:02:42.314Z,57.40
2023-05-02T18:05:10.088Z,57.50
2023-05-02T18:07:38.979Z,57.50
2023-05-02T18:10:08.713Z,58.60
2023-05-02T18:12:36.308Z,57.70
2023-05-02T18:15:05.186Z,58.10
2023-05-02T18:17:33.049Z,57.90
2023-05-02T18:20:00.880Z,58.10
2023-05-02T18:22:28.563Z,58.30
2023-05-02T18:24:56.083Z,58.30
2023-05-02T18:27:23.508Z,58.80
2023-05-02T18:29:50.904Z,58.60
2023-05-02T18:32:18.263Z,58.80
2023-05-02T18:34:45.790Z,58.70
2023-05-02T18:37:13.350Z,58.70
2023-05-02T18:39:40.667Z,58.90
2023-05-02T18:42:08.342Z,58.70
2023-05-02T18:44:35.844Z,58.80
2023-05-02T18:47:03.201Z,58.80
2023-05-02T18:49:30.803Z,59.00
2023-05-02T18:51:58.169Z,59.20
2023-05-02T18:54:27.827Z,59.30
2023-05-02T18:56:55.684Z,59.20
2023-05-02T18:59:23.046Z,59.40
2023-05-02T19:01:50.484Z,59.80
2023-05-02T19:04:18.488Z,59.80
2023-05-02T19:06:46.218Z,60.00
2023-05-02T19:09:13.775Z,60.50
2023-05-02T19:11:41.943Z,61.00
2023-05-02T19:14:09.339Z,60.20
2023-05-02T19:16:40.572Z,60.40
2023-05-02T19:19:08.277Z,61.20
2023-05-02T19:21:36.133Z,60.90
2023-05-02T19:24:03.971Z,60.80
2023-05-02T19:26:31.750Z,61.00
2023-05-02T19:28:59.138Z,61.10
2023-05-02T19:31:26.838Z,61.30
2023-05-02T19:33:54.858Z,61.90
2023-05-02T19:36:23.838Z,61.60
2023-05-02T19:38:53.673Z,63.00
2023-05-02T19:41:24.652Z,61.50
2023-05-02T19:43:52.465Z,62.40
2023-05-02T19:46:19.956Z,62.90
2023-05-02T19:48:47.568Z,62.30
2023-05-02T19:51:14.928Z,62.30
2023-05-02T19:53:49.115Z,62.50
2023-05-02T19:56:17.077Z,62.60
2023-05-02T19:58:44.438Z,63.40
2023-05-02T20:01:11.959Z,62.90
2023-05-02T20:03:39.659Z,63.50
2023-05-02T20:06:07.150Z,63.80
2023-05-02T20:08:34.952Z,63.70
2023-05-02T20:11:02.352Z,63.40
2023-05-02T20:13:29.859Z,63.60
2023-05-02T20:15:57.251Z,63.50
2023-05-02T20:18:24.712Z,63.60
2023-05-02T20:20:52.083Z,63.90
2023-05-02T20:23:19.416Z,64.10
2023-05-02T20:25:46.800Z,64.20
2023-05-02T20:28:14.210Z,64.40
2023-05-02T20:30:44.120Z,64.10
2023-05-02T20:33:16.078Z,66.00
2023-05-02T20:35:45.229Z,64.70
2023-05-02T20:38:12.609Z,65.00
2023-05-02T20:40:42.808Z,65.10
2023-05-02T20:43:11.813Z,65.40
2023-05-02T20:45:40.148Z,64.80
2023-05-02T20:48:07.651Z,65.70
2023-05-02T20:50:35.058Z,65.70
2023-05-02T20:53:02.366Z,65.00
2023-05-02T20:55:35.981Z,65.50
2023-05-02T20:58:03.447Z,64.30
2023-05-02T21:00:31.023Z,65.40
2023-05-02T21:02:58.684Z,65.40
2023-05-02T21:05:26.743Z,65.70
2023-05-02T21:07:55.117Z,65.40
2023-05-02T21:10:22.669Z,65.10
2023-05-02T21:12:50.078Z,65.80
2023-05-02T21:15:17.417Z,66.00
2023-05-02T21:17:44.913Z,66.00
2023-05-02T21:20:12.879Z,65.90
2023-05-02T21:22:41.964Z,66.40
2023-05-02T21:25:09.823Z,66.40
2023-05-02T21:27:37.288Z,66.80
2023-05-02T21:30:05.317Z,66.70
2023-05-02T21:32:32.981Z,67.00
2023-05-02T21:35:00.922Z,67.10
2023-05-02T21:37:30.540Z,67.20
2023-05-02T21:39:58.102Z,67.00
2023-05-02T21:42:25.464Z,67.40
2023-05-02T21:44:53.550Z,68.70
2023-05-02T21:47:21.673Z,68.00
2023-05-02T21:49:48.960Z,67.50
2023-05-02T21:52:16.348Z,67.80
2023-05-02T21:54:46.917Z,68.00
2023-05-02T21:57:14.414Z,68.20
2023-05-02T21:59:41.876Z,68.30
2023-05-02T22:02:10.212Z,68.40
2023-05-02T22:04:37.637Z,68.40
2023-05-02T22:07:05.061Z,68.50
2023-05-02T22:09:33.610Z,68.90
2023-05-02T22:12:02.956Z,69.20
2023-05-02T22:14:41.654Z,70.70
2023-05-02T22:17:13.773Z,70.20
2023-05-02T22:19:41.849Z,70.50
2023-05-02T22:22:09.442Z,70.50
2023-05-02T22:24:36.789Z,69.80
2023-05-02T22:27:04.600Z,69.80
2023-05-02T22:29:31.960Z,69.90
2023-05-02T22:31:59.403Z,70.20
2023-05-02T22:34:26.757Z,70.00
2023-05-02T22:36:54.165Z,70.40
2023-05-02T22:39:21.714Z,71.80
2023-05-02T22:41:49.124Z,70.70
2023-05-02T22:44:16.568Z,70.70
2023-05-02T22:46:44.112Z,71.70
2023-05-02T22:49:11.616Z,70.70
2023-05-02T22:51:40.252Z,70.80
2023-05-02T22:54:08.506Z,71.20
2023-05-02T22:56:36.014Z,71.30
2023-05-02T22:59:03.631Z,71.20
2023-05-02T23:01:31.083Z,72.50
2023-05-02T23:04:00.265Z,72.50
2023-05-02T23:06:28.847Z,72.80
2023-05-02T23:08:56.394Z,71.50
2023-05-02T23:11:23.697Z,71.90
2023-05-02T23:13:50.985Z,71.80
2023-05-02T23:16:18.457Z,71.90
2023-05-02T23:18:47.307Z,71.30
2023-05-02T23:21:15.979Z,73.60
2023-05-02T23:23:43.510Z,72.70
2023-05-02T23:26:10.864Z,72.80
2023-05-02T23:28:40.316Z,72.20
2023-05-02T23:31:08.038Z,73.80
2023-05-02T23:33:36.093Z,73.40
2023-05-02T23:36:03.868Z,73.30
2023-05-02T23:38:31.760Z,72.70
2023-05-02T23:40:59.179Z,73.20
2023-05-02T23:43:26.750Z,72.70
2023-05-02T23:45:54.355Z,73.10
2023-05-02T23:48:21.690Z,72.70
2023-05-02T23:50:49.086Z,73.50
2023-05-02T23:53:16.427Z,72.80
2023-05-02T23:55:43.781Z,72.90
2023-05-02T23:58:11.136Z,73.20
